sensor_id;sensor_type;location;lat;lon;timestamp;P1;durP1;ratioP1;P2;durP2;ratioP2
41709;SDS011;59402;48.396;-4.472;2023-03-11T00:02:09;2.22;;;1.20;;
41709;SDS011;59402;48.396;-4.472;2023-03-11T00:04:34;5.57;;;1.33;;
41709;SDS011;59402;48.396;-4.472;2023-03-11T00:07:00;3.40;;;1.63;;
41709;SDS011;59402;48.396;-4.472;2023-03-11T00:09:26;2.92;;;1.45;;
41709;SDS011;59402;48.396;-4.472;2023-03-11T00:11:52;3.05;;;1.50;;
41709;SDS011;59402;48.396;-4.472;2023-03-11T00:14:18;3.00;;;1.70;;
41709;SDS011;59402;48.396;-4.472;2023-03-11T00:16:43;2.95;;;1.40;;
41709;SDS011;59402;48.396;-4.472;2023-03-11T00:19:09;2.72;;;1.42;;
41709;SDS011;59402;48.396;-4.472;2023-03-11T00:21:35;3.38;;;1.40;;
41709;SDS011;59402;48.396;-4.472;2023-03-11T00:24:01;4.95;;;1.90;;
41709;SDS011;59402;48.396;-4.472;2023-03-11T00:26:28;4.78;;;1.30;;
41709;SDS011;59402;48.396;-4.472;2023-03-11T00:28:53;2.75;;;1.23;;
41709;SDS011;59402;48.396;-4.472;2023-03-11T00:31:20;2.47;;;1.30;;
41709;SDS011;59402;48.396;-4.472;2023-03-11T00:33:46;3.25;;;1.35;;
41709;SDS011;59402;48.396;-4.472;2023-03-11T00:36:21;3.38;;;1.92;;
41709;SDS011;59402;48.396;-4.472;2023-03-11T00:41:28;2.78;;;1.38;;
41709;SDS011;59402;48.396;-4.472;2023-03-11T00:43:54;2.70;;;1.08;;
41709;SDS011;59402;48.396;-4.472;2023-03-11T00:46:19;2.28;;;1.08;;
41709;SDS011;59402;48.396;-4.472;2023-03-11T00:48:45;1.85;;;0.90;;
41709;SDS011;59402;48.396;-4.472;2023-03-11T00:51:14;2.75;;;1.13;;
41709;SDS011;59402;48.396;-4.472;2023-03-11T00:53:40;2.20;;;1.20;;
41709;SDS011;59402;48.396;-4.472;2023-03-11T00:56:07;3.80;;;1.42;;
41709;SDS011;59402;48.396;-4.472;2023-03-11T00:58:39;3.63;;;1.38;;
41709;SDS011;59402;48.396;-4.472;2023-03-11T01:01:12;2.63;;;1.38;;
41709;SDS011;59402;48.396;-4.472;2023-03-11T01:03:42;2.20;;;1.20;;
41709;SDS011;59402;48.396;-4.472;2023-03-11T01:06:09;2.57;;;1.40;;
41709;SDS011;59402;48.396;-4.472;2023-03-11T01:08:35;2.97;;;1.13;;
41709;SDS011;59402;48.396;-4.472;2023-03-11T01:11:02;2.60;;;1.30;;
41709;SDS011;59402;48.396;-4.472;2023-03-11T01:13:29;2.70;;;1.40;;
41709;SDS011;59402;48.396;-4.472;2023-03-11T01:15:55;3.13;;;1.40;;
41709;SDS011;59402;48.396;-4.472;2023-03-11T01:18:21;3.17;;;1.65;;
41709;SDS011;59402;48.396;-4.472;2023-03-11T01:20:47;3.45;;;1.67;;
41709;SDS011;59402;48.396;-4.472;2023-03-11T01:23:14;3.00;;;1.70;;
41709;SDS011;59402;48.396;-4.472;2023-03-11T01:25:40;3.03;;;1.77;;
41709;SDS011;59402;48.396;-4.472;2023-03-11T01:28:06;3.65;;;1.80;;
41709;SDS011;59402;48.396;-4.472;2023-03-11T01:30:33;3.47;;;1.90;;
41709;SDS011;59402;48.396;-4.472;2023-03-11T01:33:01;3.80;;;1.98;;
41709;SDS011;59402;48.396;-4.472;2023-03-11T01:35:28;3.43;;;1.87;;
41709;SDS011;59402;48.396;-4.472;2023-03-11T01:37:55;4.78;;;1.67;;
41709;SDS011;59402;48.396;-4.472;2023-03-11T01:40:32;5.35;;;1.73;;
41709;SDS011;59402;48.396;-4.472;2023-03-11T01:43:06;3.08;;;1.80;;
41709;SDS011;59402;48.396;-4.472;2023-03-11T01:46:18;3.90;;;1.95;;
41709;SDS011;59402;48.396;-4.472;2023-03-11T01:48:47;3.35;;;1.85;;
41709;SDS011;59402;48.396;-4.472;2023-03-11T01:51:19;13.30;;;2.42;;
41709;SDS011;59402;48.396;-4.472;2023-03-11T01:53:50;7.25;;;1.67;;
41709;SDS011;59402;48.396;-4.472;2023-03-11T01:56:17;4.67;;;1.87;;
41709;SDS011;59402;48.396;-4.472;2023-03-11T01:58:43;13.15;;;2.03;;
41709;SDS011;59402;48.396;-4.472;2023-03-11T02:01:11;6.00;;;1.60;;
41709;SDS011;59402;48.396;-4.472;2023-03-11T02:03:38;4.43;;;1.70;;
41709;SDS011;59402;48.396;-4.472;2023-03-11T02:06:06;22.67;;;2.10;;
41709;SDS011;59402;48.396;-4.472;2023-03-11T02:08:37;9.07;;;1.75;;
41709;SDS011;59402;48.396;-4.472;2023-03-11T02:11:07;16.85;;;2.00;;
41709;SDS011;59402;48.396;-4.472;2023-03-11T02:13:34;5.32;;;1.92;;
41709;SDS011;59402;48.396;-4.472;2023-03-11T02:16:01;15.87;;;2.17;;
41709;SDS011;59402;48.396;-4.472;2023-03-11T02:18:28;3.42;;;1.70;;
41709;SDS011;59402;48.396;-4.472;2023-03-11T02:21:00;3.95;;;1.75;;
41709;SDS011;59402;48.396;-4.472;2023-03-11T02:23:42;8.50;;;1.70;;
41709;SDS011;59402;48.396;-4.472;2023-03-11T02:29:18;14.32;;;2.08;;
41709;SDS011;59402;48.396;-4.472;2023-03-11T02:31:45;2.77;;;1.67;;
41709;SDS011;59402;48.396;-4.472;2023-03-11T02:34:22;3.30;;;1.80;;
41709;SDS011;59402;48.396;-4.472;2023-03-11T02:36:50;5.30;;;2.90;;
41709;SDS011;59402;48.396;-4.472;2023-03-11T02:39:27;4.38;;;2.65;;
41709;SDS011;59402;48.396;-4.472;2023-03-11T02:44:20;3.50;;;2.28;;
41709;SDS011;59402;48.396;-4.472;2023-03-11T02:46:46;3.40;;;2.05;;
41709;SDS011;59402;48.396;-4.472;2023-03-11T02:49:12;3.40;;;2.00;;
41709;SDS011;59402;48.396;-4.472;2023-03-11T02:51:38;2.92;;;1.80;;
41709;SDS011;59402;48.396;-4.472;2023-03-11T02:54:04;3.20;;;1.80;;
41709;SDS011;59402;48.396;-4.472;2023-03-11T02:56:31;2.75;;;1.70;;
41709;SDS011;59402;48.396;-4.472;2023-03-11T02:58:58;3.30;;;1.83;;
41709;SDS011;59402;48.396;-4.472;2023-03-11T03:01:24;2.92;;;1.92;;
41709;SDS011;59402;48.396;-4.472;2023-03-11T03:03:49;3.22;;;2.22;;
41709;SDS011;59402;48.396;-4.472;2023-03-11T03:06:15;3.33;;;2.03;;
41709;SDS011;59402;48.396;-4.472;2023-03-11T03:08:41;4.00;;;2.60;;
41709;SDS011;59402;48.396;-4.472;2023-03-11T03:11:07;4.13;;;2.97;;
41709;SDS011;59402;48.396;-4.472;2023-03-11T03:13:33;4.22;;;3.00;;
41709;SDS011;59402;48.396;-4.472;2023-03-11T03:15:59;3.88;;;2.80;;
41709;SDS011;59402;48.396;-4.472;2023-03-11T03:18:25;4.25;;;2.90;;
41709;SDS011;59402;48.396;-4.472;2023-03-11T03:20:51;3.40;;;2.50;;
41709;SDS011;59402;48.396;-4.472;2023-03-11T03:23:17;3.50;;;2.38;;
41709;SDS011;59402;48.396;-4.472;2023-03-11T03:25:44;3.30;;;2.20;;
41709;SDS011;59402;48.396;-4.472;2023-03-11T03:28:10;3.08;;;1.95;;
41709;SDS011;59402;48.396;-4.472;2023-03-11T03:30:40;3.40;;;2.30;;
41709;SDS011;59402;48.396;-4.472;2023-03-11T03:33:06;2.83;;;1.80;;
41709;SDS011;59402;48.396;-4.472;2023-03-11T03:35:32;3.53;;;2.10;;
41709;SDS011;59402;48.396;-4.472;2023-03-11T03:38:03;4.10;;;2.65;;
41709;SDS011;59402;48.396;-4.472;2023-03-11T03:40:29;4.20;;;2.73;;
41709;SDS011;59402;48.396;-4.472;2023-03-11T03:45:23;4.25;;;3.17;;
41709;SDS011;59402;48.396;-4.472;2023-03-11T03:47:51;5.00;;;3.53;;
41709;SDS011;59402;48.396;-4.472;2023-03-11T03:50:18;4.05;;;3.00;;
41709;SDS011;59402;48.396;-4.472;2023-03-11T03:52:46;4.10;;;2.95;;
41709;SDS011;59402;48.396;-4.472;2023-03-11T03:55:12;4.13;;;3.15;;
41709;SDS011;59402;48.396;-4.472;2023-03-11T03:57:38;5.00;;;3.05;;
41709;SDS011;59402;48.396;-4.472;2023-03-11T04:00:07;3.90;;;3.00;;
41709;SDS011;59402;48.396;-4.472;2023-03-11T04:02:38;4.70;;;3.42;;
41709;SDS011;59402;48.396;-4.472;2023-03-11T04:07:33;4.32;;;2.95;;
41709;SDS011;59402;48.396;-4.472;2023-03-11T04:10:01;4.43;;;3.30;;
41709;SDS011;59402;48.396;-4.472;2023-03-11T04:12:29;5.45;;;4.00;;
41709;SDS011;59402;48.396;-4.472;2023-03-11T04:14:55;4.90;;;3.80;;
41709;SDS011;59402;48.396;-4.472;2023-03-11T04:17:21;5.35;;;3.63;;
41709;SDS011;59402;48.396;-4.472;2023-03-11T04:19:48;5.65;;;3.85;;
41709;SDS011;59402;48.396;-4.472;2023-03-11T04:22:15;4.97;;;3.78;;
41709;SDS011;59402;48.396;-4.472;2023-03-11T04:24:41;6.78;;;4.13;;
41709;SDS011;59402;48.396;-4.472;2023-03-11T04:27:07;4.40;;;3.17;;
41709;SDS011;59402;48.396;-4.472;2023-03-11T04:29:33;6.15;;;3.97;;
41709;SDS011;59402;48.396;-4.472;2023-03-11T04:32:00;5.03;;;3.25;;
41709;SDS011;59402;48.396;-4.472;2023-03-11T04:34:26;6.22;;;3.95;;
41709;SDS011;59402;48.396;-4.472;2023-03-11T04:36:52;6.13;;;4.43;;
41709;SDS011;59402;48.396;-4.472;2023-03-11T04:39:21;5.57;;;3.92;;
41709;SDS011;59402;48.396;-4.472;2023-03-11T04:41:46;6.75;;;4.60;;
41709;SDS011;59402;48.396;-4.472;2023-03-11T04:44:16;6.35;;;4.50;;
41709;SDS011;59402;48.396;-4.472;2023-03-11T04:46:43;7.75;;;4.72;;
41709;SDS011;59402;48.396;-4.472;2023-03-11T04:49:09;6.47;;;4.20;;
41709;SDS011;59402;48.396;-4.472;2023-03-11T04:51:35;7.68;;;4.82;;
41709;SDS011;59402;48.396;-4.472;2023-03-11T04:54:02;7.72;;;4.72;;
41709;SDS011;59402;48.396;-4.472;2023-03-11T04:56:29;6.90;;;4.63;;
41709;SDS011;59402;48.396;-4.472;2023-03-11T04:58:55;9.70;;;5.07;;
41709;SDS011;59402;48.396;-4.472;2023-03-11T05:01:23;6.20;;;4.43;;
41709;SDS011;59402;48.396;-4.472;2023-03-11T05:03:49;7.00;;;4.47;;
41709;SDS011;59402;48.396;-4.472;2023-03-11T05:06:15;6.93;;;4.78;;
41709;SDS011;59402;48.396;-4.472;2023-03-11T05:08:41;7.22;;;5.38;;
41709;SDS011;59402;48.396;-4.472;2023-03-11T05:11:07;7.25;;;4.63;;
41709;SDS011;59402;48.396;-4.472;2023-03-11T05:13:33;7.03;;;4.30;;
41709;SDS011;59402;48.396;-4.472;2023-03-11T05:15:59;9.98;;;4.30;;
41709;SDS011;59402;48.396;-4.472;2023-03-11T05:18:25;8.13;;;4.28;;
41709;SDS011;59402;48.396;-4.472;2023-03-11T05:20:52;8.18;;;4.13;;
41709;SDS011;59402;48.396;-4.472;2023-03-11T05:23:21;7.55;;;3.95;;
41709;SDS011;59402;48.396;-4.472;2023-03-11T05:25:47;7.10;;;4.18;;
41709;SDS011;59402;48.396;-4.472;2023-03-11T05:28:13;8.05;;;4.07;;
41709;SDS011;59402;48.396;-4.472;2023-03-11T05:30:45;7.68;;;4.07;;
41709;SDS011;59402;48.396;-4.472;2023-03-11T05:33:11;8.98;;;4.60;;
41709;SDS011;59402;48.396;-4.472;2023-03-11T05:35:37;14.43;;;4.75;;
41709;SDS011;59402;48.396;-4.472;2023-03-11T05:38:04;10.43;;;4.47;;
41709;SDS011;59402;48.396;-4.472;2023-03-11T05:40:32;8.20;;;3.90;;
41709;SDS011;59402;48.396;-4.472;2023-03-11T05:42:58;11.18;;;5.13;;
41709;SDS011;59402;48.396;-4.472;2023-03-11T05:45:26;9.70;;;4.20;;
41709;SDS011;59402;48.396;-4.472;2023-03-11T05:47:53;11.02;;;4.47;;
41709;SDS011;59402;48.396;-4.472;2023-03-11T05:50:19;11.35;;;4.55;;
41709;SDS011;59402;48.396;-4.472;2023-03-11T05:52:46;9.55;;;4.95;;
41709;SDS011;59402;48.396;-4.472;2023-03-11T05:55:12;9.82;;;4.88;;
41709;SDS011;59402;48.396;-4.472;2023-03-11T05:57:40;12.20;;;5.57;;
41709;SDS011;59402;48.396;-4.472;2023-03-11T06:00:06;12.20;;;5.63;;
41709;SDS011;59402;48.396;-4.472;2023-03-11T06:02:38;9.82;;;5.63;;
41709;SDS011;59402;48.396;-4.472;2023-03-11T06:05:05;12.90;;;6.68;;
41709;SDS011;59402;48.396;-4.472;2023-03-11T06:07:35;11.40;;;7.10;;
41709;SDS011;59402;48.396;-4.472;2023-03-11T06:10:02;15.18;;;6.85;;
41709;SDS011;59402;48.396;-4.472;2023-03-11T06:12:32;11.48;;;6.45;;
41709;SDS011;59402;48.396;-4.472;2023-03-11T06:15:19;11.07;;;6.55;;
41709;SDS011;59402;48.396;-4.472;2023-03-11T06:17:45;12.27;;;6.30;;
41709;SDS011;59402;48.396;-4.472;2023-03-11T06:20:11;11.32;;;5.90;;
41709;SDS011;59402;48.396;-4.472;2023-03-11T06:22:37;14.02;;;6.13;;
41709;SDS011;59402;48.396;-4.472;2023-03-11T06:25:03;11.05;;;4.82;;
41709;SDS011;59402;48.396;-4.472;2023-03-11T06:27:31;11.20;;;4.72;;
41709;SDS011;59402;48.396;-4.472;2023-03-11T06:29:57;9.88;;;4.35;;
41709;SDS011;59402;48.396;-4.472;2023-03-11T06:32:24;8.75;;;4.10;;
41709;SDS011;59402;48.396;-4.472;2023-03-11T06:34:50;11.52;;;4.30;;
41709;SDS011;59402;48.396;-4.472;2023-03-11T06:37:17;11.67;;;4.23;;
41709;SDS011;59402;48.396;-4.472;2023-03-11T06:39:43;10.90;;;4.45;;
41709;SDS011;59402;48.396;-4.472;2023-03-11T06:42:12;16.52;;;5.72;;
41709;SDS011;59402;48.396;-4.472;2023-03-11T06:44:40;26.17;;;5.72;;
41709;SDS011;59402;48.396;-4.472;2023-03-11T06:47:06;22.38;;;5.18;;
41709;SDS011;59402;48.396;-4.472;2023-03-11T06:49:32;18.60;;;4.72;;
41709;SDS011;59402;48.396;-4.472;2023-03-11T06:51:59;25.95;;;5.38;;
41709;SDS011;59402;48.396;-4.472;2023-03-11T06:54:24;36.83;;;6.22;;
41709;SDS011;59402;48.396;-4.472;2023-03-11T06:56:50;43.63;;;7.30;;
41709;SDS011;59402;48.396;-4.472;2023-03-11T06:59:16;35.47;;;7.00;;
41709;SDS011;59402;48.396;-4.472;2023-03-11T07:01:43;34.83;;;5.70;;
41709;SDS011;59402;48.396;-4.472;2023-03-11T07:04:09;29.05;;;6.40;;
41709;SDS011;59402;48.396;-4.472;2023-03-11T07:06:37;34.42;;;6.00;;
41709;SDS011;59402;48.396;-4.472;2023-03-11T07:09:20;30.42;;;6.22;;
41709;SDS011;59402;48.396;-4.472;2023-03-11T07:11:47;25.58;;;6.38;;
41709;SDS011;59402;48.396;-4.472;2023-03-11T07:14:20;35.30;;;7.60;;
41709;SDS011;59402;48.396;-4.472;2023-03-11T07:16:50;45.65;;;8.02;;
41709;SDS011;59402;48.396;-4.472;2023-03-11T07:19:25;36.17;;;6.32;;
41709;SDS011;59402;48.396;-4.472;2023-03-11T07:21:51;32.85;;;5.95;;
41709;SDS011;59402;48.396;-4.472;2023-03-11T07:24:17;33.25;;;6.50;;
41709;SDS011;59402;48.396;-4.472;2023-03-11T07:26:43;25.27;;;5.43;;
41709;SDS011;59402;48.396;-4.472;2023-03-11T07:29:08;27.52;;;5.18;;
41709;SDS011;59402;48.396;-4.472;2023-03-11T07:31:34;28.23;;;6.50;;
41709;SDS011;59402;48.396;-4.472;2023-03-11T07:34:02;40.75;;;7.40;;
41709;SDS011;59402;48.396;-4.472;2023-03-11T07:36:29;48.42;;;8.10;;
41709;SDS011;59402;48.396;-4.472;2023-03-11T07:38:56;53.65;;;8.88;;
41709;SDS011;59402;48.396;-4.472;2023-03-11T07:41:24;59.88;;;9.63;;
41709;SDS011;59402;48.396;-4.472;2023-03-11T07:43:52;50.78;;;9.52;;
41709;SDS011;59402;48.396;-4.472;2023-03-11T07:46:20;49.42;;;9.07;;
41709;SDS011;59402;48.396;-4.472;2023-03-11T07:48:47;45.33;;;8.38;;
41709;SDS011;59402;48.396;-4.472;2023-03-11T07:51:14;51.45;;;8.13;;
41709;SDS011;59402;48.396;-4.472;2023-03-11T07:53:41;51.88;;;8.75;;
41709;SDS011;59402;48.396;-4.472;2023-03-11T07:56:08;51.33;;;8.50;;
41709;SDS011;59402;48.396;-4.472;2023-03-11T07:58:35;58.58;;;9.88;;
41709;SDS011;59402;48.396;-4.472;2023-03-11T08:01:09;62.38;;;10.50;;
41709;SDS011;59402;48.396;-4.472;2023-03-11T08:03:40;63.42;;;10.23;;
41709;SDS011;59402;48.396;-4.472;2023-03-11T08:06:19;64.38;;;9.95;;
41709;SDS011;59402;48.396;-4.472;2023-03-11T08:08:53;64.72;;;9.55;;
41709;SDS011;59402;48.396;-4.472;2023-03-11T08:11:19;63.13;;;9.68;;
41709;SDS011;59402;48.396;-4.472;2023-03-11T08:13:46;63.25;;;8.88;;
41709;SDS011;59402;48.396;-4.472;2023-03-11T08:16:13;58.13;;;8.85;;
41709;SDS011;59402;48.396;-4.472;2023-03-11T08:18:40;47.75;;;9.63;;
41709;SDS011;59402;48.396;-4.472;2023-03-11T08:21:07;59.45;;;9.93;;
41709;SDS011;59402;48.396;-4.472;2023-03-11T08:23:35;56.25;;;9.00;;
41709;SDS011;59402;48.396;-4.472;2023-03-11T08:26:02;57.05;;;9.23;;
41709;SDS011;59402;48.396;-4.472;2023-03-11T08:28:29;59.15;;;9.95;;
41709;SDS011;59402;48.396;-4.472;2023-03-11T08:30:54;69.22;;;9.63;;
41709;SDS011;59402;48.396;-4.472;2023-03-11T08:33:20;58.55;;;9.57;;
41709;SDS011;59402;48.396;-4.472;2023-03-11T08:35:46;67.65;;;10.95;;
41709;SDS011;59402;48.396;-4.472;2023-03-11T08:38:11;60.90;;;9.80;;
41709;SDS011;59402;48.396;-4.472;2023-03-11T08:40:37;59.95;;;10.02;;
41709;SDS011;59402;48.396;-4.472;2023-03-11T08:43:03;74.32;;;11.13;;
41709;SDS011;59402;48.396;-4.472;2023-03-11T08:45:28;63.80;;;10.23;;
41709;SDS011;59402;48.396;-4.472;2023-03-11T08:47:54;55.13;;;9.38;;
41709;SDS011;59402;48.396;-4.472;2023-03-11T08:50:20;72.65;;;9.57;;
41709;SDS011;59402;48.396;-4.472;2023-03-11T08:52:46;58.15;;;9.85;;
41709;SDS011;59402;48.396;-4.472;2023-03-11T08:55:13;55.85;;;8.75;;
41709;SDS011;59402;48.396;-4.472;2023-03-11T08:57:41;51.65;;;8.10;;
41709;SDS011;59402;48.396;-4.472;2023-03-11T09:00:08;50.38;;;7.80;;
41709;SDS011;59402;48.396;-4.472;2023-03-11T09:02:35;48.60;;;6.75;;
41709;SDS011;59402;48.396;-4.472;2023-03-11T09:05:01;38.67;;;6.10;;
41709;SDS011;59402;48.396;-4.472;2023-03-11T09:07:27;34.72;;;6.07;;
41709;SDS011;59402;48.396;-4.472;2023-03-11T09:09:53;41.00;;;7.68;;
41709;SDS011;59402;48.396;-4.472;2023-03-11T09:12:19;42.95;;;7.53;;
41709;SDS011;59402;48.396;-4.472;2023-03-11T09:14:45;44.75;;;7.30;;
41709;SDS011;59402;48.396;-4.472;2023-03-11T09:17:10;53.45;;;7.70;;
41709;SDS011;59402;48.396;-4.472;2023-03-11T09:19:36;46.83;;;7.53;;
41709;SDS011;59402;48.396;-4.472;2023-03-11T09:22:02;48.65;;;7.70;;
41709;SDS011;59402;48.396;-4.472;2023-03-11T09:24:28;49.67;;;7.20;;
41709;SDS011;59402;48.396;-4.472;2023-03-11T09:26:56;49.05;;;7.93;;
41709;SDS011;59402;48.396;-4.472;2023-03-11T09:29:23;64.00;;;8.88;;
41709;SDS011;59402;48.396;-4.472;2023-03-11T09:31:48;51.20;;;9.25;;
41709;SDS011;59402;48.396;-4.472;2023-03-11T09:34:14;49.75;;;8.07;;
41709;SDS011;59402;48.396;-4.472;2023-03-11T09:36:40;51.13;;;8.23;;
41709;SDS011;59402;48.396;-4.472;2023-03-11T09:39:06;53.28;;;8.95;;
41709;SDS011;59402;48.396;-4.472;2023-03-11T09:41:35;54.67;;;9.45;;
41709;SDS011;59402;48.396;-4.472;2023-03-11T09:49:18;46.08;;;8.55;;
41709;SDS011;59402;48.396;-4.472;2023-03-11T09:52:08;47.40;;;8.05;;
41709;SDS011;59402;48.396;-4.472;2023-03-11T09:54:42;41.75;;;8.10;;
41709;SDS011;59402;48.396;-4.472;2023-03-11T09:57:15;47.28;;;8.07;;
41709;SDS011;59402;48.396;-4.472;2023-03-11T09:59:44;55.15;;;9.07;;
41709;SDS011;59402;48.396;-4.472;2023-03-11T10:02:13;41.60;;;9.25;;
41709;SDS011;59402;48.396;-4.472;2023-03-11T10:07:30;55.22;;;9.50;;
41709;SDS011;59402;48.396;-4.472;2023-03-11T10:09:59;72.45;;;10.93;;
41709;SDS011;59402;48.396;-4.472;2023-03-11T10:20:39;52.53;;;9.80;;
41709;SDS011;59402;48.396;-4.472;2023-03-11T10:23:29;61.22;;;11.00;;
41709;SDS011;59402;48.396;-4.472;2023-03-11T10:28:56;59.05;;;10.18;;
41709;SDS011;59402;48.396;-4.472;2023-03-11T10:31:30;60.38;;;9.90;;
41709;SDS011;59402;48.396;-4.472;2023-03-11T10:34:22;63.53;;;11.18;;
41709;SDS011;59402;48.396;-4.472;2023-03-11T10:39:22;63.17;;;11.32;;
41709;SDS011;59402;48.396;-4.472;2023-03-11T10:41:50;72.97;;;12.20;;
41709;SDS011;59402;48.396;-4.472;2023-03-11T10:44:23;63.35;;;11.77;;
41709;SDS011;59402;48.396;-4.472;2023-03-11T10:46:53;81.63;;;11.85;;
41709;SDS011;59402;48.396;-4.472;2023-03-11T10:49:19;77.05;;;12.40;;
41709;SDS011;59402;48.396;-4.472;2023-03-11T10:51:49;79.85;;;12.60;;
41709;SDS011;59402;48.396;-4.472;2023-03-11T10:54:24;83.60;;;12.43;;
41709;SDS011;59402;48.396;-4.472;2023-03-11T10:56:57;83.30;;;11.90;;
41709;SDS011;59402;48.396;-4.472;2023-03-11T11:04:35;79.75;;;12.60;;
41709;SDS011;59402;48.396;-4.472;2023-03-11T11:12:57;69.45;;;11.45;;
41709;SDS011;59402;48.396;-4.472;2023-03-11T11:18:02;69.63;;;11.20;;
41709;SDS011;59402;48.396;-4.472;2023-03-11T11:20:29;74.50;;;11.07;;
41709;SDS011;59402;48.396;-4.472;2023-03-11T11:22:57;51.10;;;10.25;;
41709;SDS011;59402;48.396;-4.472;2023-03-11T11:25:35;59.97;;;10.00;;
41709;SDS011;59402;48.396;-4.472;2023-03-11T11:34:13;46.22;;;7.90;;
41709;SDS011;59402;48.396;-4.472;2023-03-11T11:36:13;36.85;;;6.45;;
41709;SDS011;59402;48.396;-4.472;2023-03-11T11:38:40;35.53;;;6.37;;
41709;SDS011;59402;48.396;-4.472;2023-03-11T11:41:08;33.83;;;6.40;;
41709;SDS011;59402;48.396;-4.472;2023-03-11T11:43:40;49.92;;;7.85;;
41709;SDS011;59402;48.396;-4.472;2023-03-11T11:46:21;58.00;;;8.55;;
41709;SDS011;59402;48.396;-4.472;2023-03-11T11:49:28;56.58;;;9.43;;
41709;SDS011;59402;48.396;-4.472;2023-03-11T11:52:11;92.28;;;12.77;;
41709;SDS011;59402;48.396;-4.472;2023-03-11T11:57:16;81.18;;;12.98;;
41709;SDS011;59402;48.396;-4.472;2023-03-11T11:59:43;82.82;;;12.27;;
41709;SDS011;59402;48.396;-4.472;2023-03-11T12:07:23;75.30;;;11.27;;
41709;SDS011;59402;48.396;-4.472;2023-03-11T12:13:03;78.70;;;13.40;;
41709;SDS011;59402;48.396;-4.472;2023-03-11T12:15:34;87.78;;;13.63;;
41709;SDS011;59402;48.396;-4.472;2023-03-11T12:18:09;83.70;;;13.55;;
41709;SDS011;59402;48.396;-4.472;2023-03-11T12:20:50;92.25;;;13.43;;
41709;SDS011;59402;48.396;-4.472;2023-03-11T12:23:28;91.25;;;14.50;;
41709;SDS011;59402;48.396;-4.472;2023-03-11T12:26:18;87.88;;;14.57;;
41709;SDS011;59402;48.396;-4.472;2023-03-11T12:31:17;87.38;;;13.52;;
41709;SDS011;59402;48.396;-4.472;2023-03-11T12:33:47;97.65;;;14.23;;
41709;SDS011;59402;48.396;-4.472;2023-03-11T12:36:23;94.85;;;13.90;;
41709;SDS011;59402;48.396;-4.472;2023-03-11T12:38:54;81.80;;;13.48;;
41709;SDS011;59402;48.396;-4.472;2023-03-11T12:43:57;63.88;;;11.65;;
41709;SDS011;59402;48.396;-4.472;2023-03-11T12:46:23;63.15;;;11.90;;
41709;SDS011;59402;48.396;-4.472;2023-03-11T12:49:28;50.83;;;10.88;;
41709;SDS011;59402;48.396;-4.472;2023-03-11T12:54:40;51.95;;;10.52;;
41709;SDS011;59402;48.396;-4.472;2023-03-11T13:08:48;65.28;;;11.15;;
41709;SDS011;59402;48.396;-4.472;2023-03-11T13:14:07;65.10;;;11.80;;
41709;SDS011;59402;48.396;-4.472;2023-03-11T13:16:41;79.07;;;13.75;;
41709;SDS011;59402;48.396;-4.472;2023-03-11T13:21:58;96.22;;;14.80;;
41709;SDS011;59402;48.396;-4.472;2023-03-11T13:40:53;131.30;;;18.10;;
41709;SDS011;59402;48.396;-4.472;2023-03-11T13:43:20;155.40;;;20.48;;
41709;SDS011;59402;48.396;-4.472;2023-03-11T13:45:56;130.20;;;18.02;;
41709;SDS011;59402;48.396;-4.472;2023-03-11T13:48:35;133.45;;;18.42;;
41709;SDS011;59402;48.396;-4.472;2023-03-11T13:51:12;139.20;;;18.98;;
41709;SDS011;59402;48.396;-4.472;2023-03-11T13:53:44;127.13;;;18.05;;
41709;SDS011;59402;48.396;-4.472;2023-03-11T13:56:17;121.00;;;17.25;;
41709;SDS011;59402;48.396;-4.472;2023-03-11T13:58:53;117.38;;;18.13;;
41709;SDS011;59402;48.396;-4.472;2023-03-11T14:01:19;114.70;;;16.15;;
41709;SDS011;59402;48.396;-4.472;2023-03-11T14:03:45;99.78;;;15.30;;
41709;SDS011;59402;48.396;-4.472;2023-03-11T14:06:18;108.37;;;16.70;;
41709;SDS011;59402;48.396;-4.472;2023-03-11T14:08:51;98.07;;;16.23;;
41709;SDS011;59402;48.396;-4.472;2023-03-11T14:11:24;91.35;;;15.10;;
41709;SDS011;59402;48.396;-4.472;2023-03-11T14:13:51;102.70;;;15.93;;
41709;SDS011;59402;48.396;-4.472;2023-03-11T14:19:04;95.18;;;14.63;;
41709;SDS011;59402;48.396;-4.472;2023-03-11T14:21:33;96.38;;;16.13;;
41709;SDS011;59402;48.396;-4.472;2023-03-11T14:23:59;91.22;;;14.60;;
41709;SDS011;59402;48.396;-4.472;2023-03-11T14:26:29;100.65;;;15.05;;
41709;SDS011;59402;48.396;-4.472;2023-03-11T14:29:00;78.30;;;14.45;;
41709;SDS011;59402;48.396;-4.472;2023-03-11T14:31:35;98.10;;;14.95;;
41709;SDS011;59402;48.396;-4.472;2023-03-11T14:36:54;99.93;;;16.85;;
41709;SDS011;59402;48.396;-4.472;2023-03-11T14:39:28;99.65;;;14.88;;
41709;SDS011;59402;48.396;-4.472;2023-03-11T14:44:31;89.72;;;15.63;;
41709;SDS011;59402;48.396;-4.472;2023-03-11T14:47:17;91.95;;;15.63;;
41709;SDS011;59402;48.396;-4.472;2023-03-11T14:49:47;110.18;;;17.67;;
41709;SDS011;59402;48.396;-4.472;2023-03-11T14:52:17;94.28;;;16.13;;
41709;SDS011;59402;48.396;-4.472;2023-03-11T14:54:45;87.50;;;14.05;;
41709;SDS011;59402;48.396;-4.472;2023-03-11T14:59:40;97.97;;;16.33;;
41709;SDS011;59402;48.396;-4.472;2023-03-11T15:05:14;86.88;;;16.08;;
41709;SDS011;59402;48.396;-4.472;2023-03-11T15:07:46;94.22;;;15.10;;
41709;SDS011;59402;48.396;-4.472;2023-03-11T15:12:40;98.43;;;17.42;;
41709;SDS011;59402;48.396;-4.472;2023-03-11T15:15:23;85.03;;;15.70;;
41709;SDS011;59402;48.396;-4.472;2023-03-11T15:17:51;80.85;;;14.52;;
41709;SDS011;59402;48.396;-4.472;2023-03-11T15:20:25;94.32;;;16.08;;
41709;SDS011;59402;48.396;-4.472;2023-03-11T15:23:04;91.78;;;15.55;;
41709;SDS011;59402;48.396;-4.472;2023-03-11T15:25:31;83.68;;;15.80;;
41709;SDS011;59402;48.396;-4.472;2023-03-11T15:27:59;83.60;;;16.27;;
41709;SDS011;59402;48.396;-4.472;2023-03-11T15:30:38;88.18;;;15.13;;
41709;SDS011;59402;48.396;-4.472;2023-03-11T15:33:18;78.10;;;14.00;;
41709;SDS011;59402;48.396;-4.472;2023-03-11T15:35:46;72.13;;;13.45;;
41709;SDS011;59402;48.396;-4.472;2023-03-11T15:38:19;76.03;;;15.48;;
41709;SDS011;59402;48.396;-4.472;2023-03-11T15:40:57;85.68;;;13.52;;
41709;SDS011;59402;48.396;-4.472;2023-03-11T15:46:07;85.57;;;14.25;;
41709;SDS011;59402;48.396;-4.472;2023-03-11T15:48:33;80.32;;;14.63;;
41709;SDS011;59402;48.396;-4.472;2023-03-11T15:50:59;92.80;;;14.95;;
41709;SDS011;59402;48.396;-4.472;2023-03-11T15:53:25;84.72;;;14.55;;
41709;SDS011;59402;48.396;-4.472;2023-03-11T15:58:19;89.50;;;14.57;;
41709;SDS011;59402;48.396;-4.472;2023-03-11T16:00:46;82.10;;;15.25;;
41709;SDS011;59402;48.396;-4.472;2023-03-11T16:03:16;99.20;;;15.32;;
41709;SDS011;59402;48.396;-4.472;2023-03-11T16:05:42;98.47;;;16.33;;
41709;SDS011;59402;48.396;-4.472;2023-03-11T16:08:08;104.75;;;16.58;;
41709;SDS011;59402;48.396;-4.472;2023-03-11T16:10:34;88.70;;;15.63;;
41709;SDS011;59402;48.396;-4.472;2023-03-11T16:13:00;100.57;;;16.80;;
41709;SDS011;59402;48.396;-4.472;2023-03-11T16:15:33;103.13;;;16.58;;
41709;SDS011;59402;48.396;-4.472;2023-03-11T16:18:01;94.45;;;15.88;;
41709;SDS011;59402;48.396;-4.472;2023-03-11T16:20:39;98.93;;;15.40;;
41709;SDS011;59402;48.396;-4.472;2023-03-11T16:23:06;84.82;;;12.93;;
41709;SDS011;59402;48.396;-4.472;2023-03-11T16:25:40;83.43;;;12.80;;
41709;SDS011;59402;48.396;-4.472;2023-03-11T16:28:06;93.65;;;14.80;;
41709;SDS011;59402;48.396;-4.472;2023-03-11T16:32:59;91.15;;;13.50;;
41709;SDS011;59402;48.396;-4.472;2023-03-11T16:35:25;81.80;;;11.75;;
41709;SDS011;59402;48.396;-4.472;2023-03-11T16:37:52;85.78;;;13.02;;
41709;SDS011;59402;48.396;-4.472;2023-03-11T16:40:19;87.60;;;12.70;;
41709;SDS011;59402;48.396;-4.472;2023-03-11T16:42:49;87.85;;;13.95;;